• Join FlightAware (Why Join?)
  • Login
  • US Flag 
 
02:20AM EST


 

Airport Tracker/Info


-or-


 

Live Flight TrackerFlight Track Log ✈ FLG3726 ✈ 01-Sep-2013 ✈ KMSP - KOKC

Flight Track Log - Related Links

Times and Time Zones

All times are in EDT time to prevent confusion due to time zone crossing. See the FLG3726 flight status page for this flight to view local times or setup timezone preferences in your user account.

Time Position Orientation Groundspeed Altitude Reporting Facility
EDT Latitude Longitude Course Direction KTS MPH feet Rate Location/Type
02:31PM 44.8881 -93.3003 239° Southwest 197 227 3,500  Level Minneapolis Center
02:32PM 44.8489 -93.3908 239° Southwest 260 299 6,500 2,580 Climbing Minneapolis Center
02:33PM 44.7761 -93.4322 202° Southwest 310 357 8,900 2,280 Climbing Minneapolis Center
02:34PM 44.6931 -93.4678 197° South 318 366 11,300 1,740 Climbing Minneapolis Center
02:35PM 44.6042 -93.5217 203° Southwest 348 400 12,600 1,140 Climbing Minneapolis Center
02:36PM 44.4853 -93.5872 201° Southwest 387 445 13,700 1,020 Climbing Minneapolis Center
02:37PM 44.3814 -93.6533 204° Southwest 409 471 14,700 960 Climbing Minneapolis Center
02:38PM 44.2808 -93.7369 211° Southwest 419 482 15,800 1,020 Climbing Minneapolis Center
02:39PM 44.1792 -93.8189 210° Southwest 422 486 16,900 960 Climbing Minneapolis Center
02:40PM 44.0767 -93.9011 210° Southwest 426 490 17,900 960 Climbing Minneapolis Center
02:41PM 43.9742 -93.9831 210° Southwest 425 489 18,900 960 Climbing Minneapolis Center
02:42PM 43.8664 -94.0547 206° Southwest 431 496 19,900 1,020 Climbing Minneapolis Center
02:43PM 43.7294 -94.1222 200° South 436 502 21,100 1,020 Climbing Minneapolis Center
02:44PM 43.6158 -94.1775 199° South 434 499 22,100 960 Climbing Minneapolis Center
02:45PM 43.5008 -94.2328 199° South 434 499 23,100 780 Climbing Minneapolis Center
02:47PM 43.3911 -94.2850 199° South 436 502 23,800 720 Climbing Minneapolis Center
02:48PM 43.2753 -94.3403 199° South 438 504 24,600 720 Climbing Minneapolis Center
02:49PM 43.1356 -94.4069 199° South 442 509 25,400 600 Climbing Minneapolis Center
02:50PM 43.0169 -94.4639 199° South 447 514 25,900 480 Climbing Minneapolis Center
02:51PM 42.9000 -94.5214 200° South 449 517 26,400 480 Climbing Minneapolis Center
02:52PM 42.7800 -94.5778 199° South 453 521 26,900 480 Climbing Minneapolis Center
02:53PM 42.6592 -94.6342 199° South 455 524 27,400 480 Climbing Minneapolis Center
02:54PM 42.5367 -94.6917 199° South 462 532 27,900 480 Climbing Minneapolis Center
02:55PM 42.3906 -94.7606 199° South 463 533 28,500 480 Climbing Minneapolis Center
02:56PM 42.2447 -94.8292 199° South 461 531 29,100 480 Climbing Minneapolis Center
02:57PM 42.1233 -94.8847 199° South 460 529 29,600 420 Climbing Minneapolis Center
02:58PM 42.0011 -94.9403 199° South 461 531 30,000 180 Climbing Minneapolis Center
02:59PM 41.8781 -94.9925 198° South 462 532 30,000  Level Minneapolis Center
03:00PM 41.7525 -95.0517 199° South 470 541 30,000  Level Minneapolis Center
03:01PM 41.6239 -95.1092 198° South 479 551 30,000  Level Minneapolis Center
03:02PM 41.4972 -95.1667 199° South 481 554 30,000  Level Minneapolis Center
03:03PM 41.3700 -95.2233 198° South 479 551 30,000  Level Minneapolis Center
03:04PM 41.2444 -95.2811 199° South 476 548 30,000  Level Minneapolis Center
03:05PM 41.0931 -95.3475 198° South 474 545 30,000  Level Minneapolis Center
03:06PM 40.9672 -95.4039 199° South 473 544 30,000  Level Minneapolis Center
03:07PM 40.8414 -95.4594 198° South 474 545 30,000  Level Minneapolis Center
03:08PM 40.7147 -95.5158 199° South 475 547 30,000  Level Minneapolis Center
03:09PM 40.5892 -95.5711 198° South 475 547 30,000  Level Minneapolis Center
03:10PM 40.4633 -95.6272 199° South 475 547 30,000  Level Minneapolis Center
03:11PM 40.3383 -95.6792 198° South 473 544 30,000  Level Minneapolis Center
03:12PM 40.2136 -95.7331 198° South 471 542 30,000  Level Minneapolis Center
03:13PM 40.1139 -95.7794 200° South 472 543 30,000  Level Kansas City Center
03:14PM 39.9761 -95.8378 198° South 469 540 30,000  Level Kansas City Center
03:15PM 39.8581 -95.8892 198° South 467 537 30,000  Level Kansas City Center
03:16PM 39.7197 -95.9472 198° South 469 540 30,000  Level Kansas City Center
03:17PM 39.6019 -95.9969 198° South 467 537 30,000  Level Kansas City Center
03:18PM 39.4833 -96.0469 198° South 469 540 30,000  Level Kansas City Center
03:19PM 39.3467 -96.1047 198° South 465 535 30,000  Level Kansas City Center
03:20PM 39.2286 -96.1558 199° South 467 537 30,000  Level Kansas City Center
03:21PM 39.0919 -96.2119 198° South 465 535 30,000  Level Kansas City Center
03:22PM 38.9744 -96.2614 198° South 466 536 30,000  Level Kansas City Center
03:23PM 38.8381 -96.3183 198° South 463 533 30,000  Level Kansas City Center
03:24PM 38.7203 -96.3664 198° South 464 534 30,000  Level Kansas City Center
03:25PM 38.6025 -96.4150 198° South 464 534 30,000  Level Kansas City Center
03:27PM 38.4656 -96.4719 198° South 465 535 30,000  Level Kansas City Center
03:28PM 38.3403 -96.5231 198° South 463 533 30,000  Level Kansas City Center
03:29PM 38.2175 -96.5725 198° South 461 531 30,000  Level Kansas City Center
03:30PM 38.0956 -96.6222 198° South 460 529 30,000  Level Kansas City Center
03:31PM 37.9731 -96.6717 198° South 459 528 30,000  Level Kansas City Center
03:32PM 37.8506 -96.7206 197° South 460 529 30,000  Level Kansas City Center
03:33PM 37.7278 -96.7711 198° South 461 531 30,000  Level Kansas City Center
03:34PM 37.6047 -96.8200 197° South 461 531 30,000  Level Kansas City Center
03:35PM 37.4814 -96.8692 198° South 462 532 30,000  Level Kansas City Center
03:36PM 37.3581 -96.9186 198° South 463 533 30,000  Level Kansas City Center
03:37PM 37.2322 -96.9683 197° South 467 537 30,000  Level Kansas City Center
03:38PM 37.0836 -97.0283 198° South 468 539 30,000  Level Kansas City Center
03:39PM 36.9586 -97.0783 198° South 468 539 30,000 -540 Level Kansas City Center
03:40PM 36.8378 -97.1197 195° South 457 526 28,900 -1,440 Descending Kansas City Center
03:41PM 36.7219 -97.1603 196° South 467 537 27,100 -1,740 Descending Kansas City Center
03:42PM 36.5969 -97.1503 176° South 450 518 25,400 -1,740 Descending Kansas City Center
03:43PM 36.4758 -97.1558 182° South 437 503 23,600 -1,980 Descending Kansas City Center
03:44PM 36.3292 -97.1497 178° South 438 504 21,400 -1,980 Descending Kansas City Center
03:45PM 36.2078 -97.1486 180° South 436 502 19,600 -1,800 Descending Kansas City Center
03:46PM 36.0897 -97.1450 179° South 429 494 17,800 -1,860 Descending Kansas City Center
03:47PM 35.9844 -97.1658 189° South 395 455 15,900 -2,040 Descending Kansas City Center
03:48PM 35.8944 -97.2294 210° Southwest 376 433 13,700 -2,160 Descending Kansas City Center
03:49PM 35.8153 -97.2864 210° Southwest 342 394 11,500 -1,920 Descending Kansas City Center
03:50PM 35.7419 -97.3381 210° Southwest 314 361 9,800 -1,680 Descending Kansas City Center
03:51PM 35.6775 -97.3844 210° Southwest 282 325 8,200 -1,680 Descending Kansas City Center
03:52PM 35.6211 -97.4239 210° Southwest 273 314 7,000 -1,320 Descending Fort Worth Center
03:53PM 35.5458 -97.4647 204° Southwest 284 327 6,000 -1,200 Descending Fort Worth Center
03:54PM 35.4667 -97.4772 187° South 279 321 4,700 -1,020 Descending Fort Worth Center
03:55PM 35.3894 -97.4900 188° South 279 321 4,000 -360 Descending Fort Worth Center
03:56PM 35.3103 -97.5078 190° South 286 329 4,000 -180 Level Fort Worth Center
03:57PM 35.2456 -97.5381 201° Southwest 251 289 3,700 -540 Descending Fort Worth Center
03:58PM 35.2747 -97.5942 302° West 200 230 3,000 -660 Descending Fort Worth Center
03:59PM 35.3206 -97.5942 360° North 142 163 2,400 -660 Descending Fort Worth Center
04:00PM 35.3581 -97.5942 360° North 127 146 1,700 -720 Descending Fort Worth Center